Time;durP1;ratioP1;P1;durP2;ratioP2;P2;SDS_P1;SDS_P2;PMS_P1;PMS_P2;Temp;Humidity;BMP_temperature;BMP_pressure;BME280_temperature;BME280_humidity;BME280_pressure;Samples;Min_cycle;Max_cycle;Signal;HPM_P1;HPM_P2
2021/03/14 00:00:49;;;;;;;1.48;1.10;;;4.50;99.90;;;;;;5159398;27;20498;-64
2021/03/14 00:03:19;;;;;;;2.38;0.75;;;4.50;99.90;;;;;;5159174;27;20491;-63
2021/03/14 00:05:46;;;;;;;0.85;0.70;;;4.40;99.90;;;;;;5160305;27;20189;-62
2021/03/14 00:08:13;;;;;;;4.70;1.58;;;4.30;99.90;;;;;;5159595;27;20332;-62
2021/03/14 00:10:42;;;;;;;7.95;2.05;;;4.30;99.90;;;;;;5159491;27;20182;-66
2021/03/14 00:13:10;;;;;;;2.53;1.65;;;4.30;99.90;;;;;;5159122;27;20313;-62
2021/03/14 00:15:35;;;;;;;2.25;0.90;;;4.30;99.90;;;;;;5159026;27;20178;-61
2021/03/14 00:18:05;;;;;;;4.17;0.80;;;4.40;99.90;;;;;;5157966;27;20230;-62
2021/03/14 00:20:31;;;;;;;1.95;1.02;;;4.40;99.90;;;;;;5159268;27;20498;-61
2021/03/14 00:23:00;;;;;;;2.22;1.15;;;4.40;99.90;;;;;;5158809;27;20254;-64
2021/03/14 00:25:26;;;;;;;4.28;1.40;;;4.40;99.90;;;;;;5158981;27;20177;-61
2021/03/14 00:27:59;;;;;;;2.47;0.80;;;4.40;99.90;;;;;;5159275;27;20246;-65
2021/03/14 00:30:26;;;;;;;2.25;1.45;;;4.50;99.90;;;;;;5159565;27;20177;-64
2021/03/14 00:32:52;;;;;;;1.52;1.02;;;4.40;99.90;;;;;;5159194;27;20225;-62
2021/03/14 00:35:19;;;;;;;1.80;1.15;;;4.50;99.90;;;;;;5158758;27;20182;-61
2021/03/14 00:37:45;;;;;;;3.30;0.80;;;4.50;99.90;;;;;;5159412;27;20179;-62
2021/03/14 00:40:29;;;;;;;2.40;1.15;;;4.50;99.90;;;;;;5159582;27;20220;-61
2021/03/14 00:42:58;;;;;;;2.90;1.35;;;4.50;99.90;;;;;;5159128;27;20664;-62
2021/03/14 00:45:24;;;;;;;2.47;1.20;;;4.60;99.90;;;;;;5158900;27;20202;-62
2021/03/14 00:47:52;;;;;;;5.97;1.30;;;4.60;99.90;;;;;;5159311;27;20255;-62
2021/03/14 00:50:25;;;;;;;3.65;1.60;;;4.50;99.90;;;;;;5160248;27;20174;-68
2021/03/14 00:52:51;;;;;;;4.07;1.70;;;4.60;99.90;;;;;;5159472;27;20221;-60
2021/03/14 00:55:20;;;;;;;1.73;1.00;;;4.50;99.90;;;;;;5159477;27;20257;-61
2021/03/14 00:57:45;;;;;;;1.10;0.93;;;4.60;99.90;;;;;;5159368;27;20181;-60
2021/03/14 01:00:12;;;;;;;2.80;1.37;;;4.50;99.90;;;;;;5159156;27;20174;-65
2021/03/14 01:02:37;;;;;;;5.25;1.63;;;4.50;99.90;;;;;;5159539;27;20186;-62
2021/03/14 01:05:04;;;;;;;5.27;1.77;;;4.50;99.90;;;;;;5157992;27;20223;-63
2021/03/14 01:07:32;;;;;;;7.10;1.50;;;4.60;99.90;;;;;;5158763;27;20202;-64
2021/03/14 01:09:58;;;;;;;3.25;1.40;;;4.60;99.90;;;;;;5158552;27;20250;-64
2021/03/14 01:12:24;;;;;;;3.37;2.07;;;4.60;99.90;;;;;;5158729;27;20526;-63
2021/03/14 01:14:49;;;;;;;1.67;0.90;;;4.60;99.90;;;;;;5159247;27;20311;-63
2021/03/14 01:17:15;;;;;;;4.00;1.20;;;4.50;99.90;;;;;;5158935;27;20565;-61
2021/03/14 01:19:40;;;;;;;8.17;1.63;;;4.50;99.90;;;;;;5159120;27;20622;-61
2021/03/14 01:22:11;;;;;;;4.00;1.20;;;4.50;99.90;;;;;;5158586;27;20636;-61
2021/03/14 01:24:37;;;;;;;2.03;1.75;;;4.50;99.90;;;;;;5158467;27;20162;-61
2021/03/14 01:27:03;;;;;;;4.83;1.70;;;4.50;99.90;;;;;;5157967;27;20192;-61
2021/03/14 01:29:28;;;;;;;9.50;2.10;;;4.60;99.90;;;;;;5157986;27;20282;-62
2021/03/14 01:31:54;;;;;;;3.23;1.17;;;4.60;99.90;;;;;;5158357;27;20181;-61
2021/03/14 01:34:19;;;;;;;4.83;2.30;;;4.60;99.90;;;;;;5157636;27;20236;-61
2021/03/14 01:36:45;;;;;;;6.73;2.10;;;4.60;99.90;;;;;;5158272;27;20190;-61
2021/03/14 01:39:11;;;;;;;4.53;1.97;;;4.60;99.90;;;;;;5157861;27;20192;-62
2021/03/14 01:41:37;;;;;;;5.93;2.80;;;4.70;99.90;;;;;;5157842;27;20243;-62
2021/03/14 01:44:02;;;;;;;4.90;1.80;;;4.70;99.90;;;;;;5157952;27;20185;-62
2021/03/14 01:46:28;;;;;;;9.20;2.17;;;4.70;99.90;;;;;;5160590;27;20174;-60
2021/03/14 01:48:55;;;;;;;6.00;2.20;;;4.70;99.90;;;;;;5162226;27;20173;-62
2021/03/14 01:51:21;;;;;;;8.25;2.33;;;4.70;99.90;;;;;;5162586;27;20423;-62
2021/03/14 01:53:48;;;;;;;5.28;2.00;;;4.70;99.90;;;;;;5162090;27;20229;-61
2021/03/14 01:56:13;;;;;;;5.18;1.95;;;4.60;99.90;;;;;;5162345;27;20170;-61
2021/03/14 01:58:41;;;;;;;3.40;2.10;;;4.70;99.90;;;;;;5162119;27;20606;-61
2021/03/14 02:01:06;;;;;;;5.68;2.42;;;4.70;99.90;;;;;;5162037;27;20261;-62
2021/03/14 02:03:32;;;;;;;6.17;2.80;;;4.80;99.90;;;;;;5161327;27;20230;-63
2021/03/14 02:05:57;;;;;;;8.93;2.80;;;4.90;99.90;;;;;;5161320;27;20193;-61
2021/03/14 02:08:23;;;;;;;11.10;3.63;;;5.00;99.90;;;;;;5161642;27;20201;-62
2021/03/14 02:10:51;;;;;;;3.20;2.40;;;4.90;99.90;;;;;;5161570;27;20186;-62
2021/03/14 02:13:42;;;;;;;10.77;2.90;;;5.00;99.90;;;;;;5161720;27;20268;-62
2021/03/14 02:16:13;;;;;;;8.73;3.10;;;4.90;99.90;;;;;;5162277;27;20174;-62
2021/03/14 02:18:43;;;;;;;10.32;3.28;;;4.80;99.90;;;;;;5161634;27;20173;-62
2021/03/14 02:21:09;;;;;;;4.10;1.90;;;5.00;99.90;;;;;;5161800;27;20170;-61
2021/03/14 02:23:41;;;;;;;16.17;3.70;;;4.80;99.90;;;;;;5161415;27;20186;-61
2021/03/14 02:26:11;;;;;;;4.90;2.35;;;4.90;99.90;;;;;;5161666;27;20199;-62
2021/03/14 02:28:38;;;;;;;9.52;2.28;;;4.90;99.90;;;;;;5161773;27;20178;-61
2021/03/14 02:31:05;;;;;;;8.60;2.40;;;4.90;99.90;;;;;;5161812;27;20178;-62
2021/03/14 02:33:34;;;;;;;3.25;2.22;;;4.80;99.90;;;;;;5161566;27;20358;-62
2021/03/14 02:36:00;;;;;;;5.00;1.75;;;4.70;99.90;;;;;;5162039;27;20176;-62
2021/03/14 02:38:26;;;;;;;6.60;3.80;;;4.80;99.90;;;;;;5160998;27;20253;-62
2021/03/14 02:40:59;;;;;;;3.30;1.70;;;4.80;99.90;;;;;;5160952;27;20262;-62
2021/03/14 02:43:26;;;;;;;3.17;1.60;;;4.80;99.90;;;;;;5161386;27;20154;-63
2021/03/14 02:45:53;;;;;;;1.35;1.25;;;4.80;99.90;;;;;;5161064;27;20178;-61
2021/03/14 02:48:19;;;;;;;6.78;2.83;;;4.70;99.90;;;;;;5161288;27;20208;-61
2021/03/14 02:50:46;;;;;;;2.70;1.70;;;4.70;99.90;;;;;;5161103;27;20228;-62
2021/03/14 02:53:32;;;;;;;5.32;2.22;;;4.70;99.90;;;;;;5161150;27;20222;-62
2021/03/14 02:55:58;;;;;;;4.05;2.33;;;4.70;99.90;;;;;;5160891;27;20182;-62
2021/03/14 02:58:25;;;;;;;5.88;2.97;;;4.70;99.90;;;;;;5159298;27;20192;-64
2021/03/14 03:00:52;;;;;;;8.52;2.60;;;4.70;99.90;;;;;;5162337;27;20166;-66
2021/03/14 03:03:24;;;;;;;7.90;2.90;;;4.70;99.90;;;;;;5162380;27;20202;-62
2021/03/14 03:06:00;;;;;;;6.22;2.55;;;4.80;99.90;;;;;;5162424;27;20220;-63
2021/03/14 03:08:28;;;;;;;7.55;3.95;;;4.80;99.90;;;;;;5161478;27;20697;-62
2021/03/14 03:10:55;;;;;;;6.55;1.85;;;4.70;99.90;;;;;;5161750;27;20179;-62
2021/03/14 03:13:28;;;;;;;6.70;2.83;;;4.80;99.90;;;;;;5161220;27;20243;-65
2021/03/14 03:15:56;;;;;;;4.47;2.38;;;4.80;99.90;;;;;;5160009;27;20194;-65
2021/03/14 03:18:25;;;;;;;8.57;2.65;;;5.00;99.90;;;;;;5160842;27;20257;-71
2021/03/14 03:20:51;;;;;;;7.47;2.50;;;4.90;95.20;;;;;;5161774;27;20257;-64
2021/03/14 03:23:17;;;;;;;3.60;2.25;;;4.90;54.80;;;;;;5160311;27;20198;-64
2021/03/14 03:25:43;;;;;;;7.57;2.65;;;4.90;39.50;;;;;;5159903;27;20221;-64
2021/03/14 03:28:12;;;;;;;5.77;2.97;;;4.90;21.00;;;;;;5160288;27;20170;-68
2021/03/14 03:30:38;;;;;;;4.15;2.60;;;5.00;23.70;;;;;;5160762;27;20624;-62
2021/03/14 03:33:07;;;;;;;5.70;3.25;;;5.00;12.70;;;;;;5160287;27;20201;-66
2021/03/14 03:35:43;;;;;;;3.78;2.00;;;5.00;1.00;;;;;;5163119;27;20174;-67
2021/03/14 03:38:09;;;;;;;7.00;2.90;;;5.00;7.00;;;;;;5162303;27;20243;-67
2021/03/14 03:40:36;;;;;;;2.90;2.60;;;5.00;21.00;;;;;;5162261;27;20216;-63
2021/03/14 03:43:21;;;;;;;4.03;2.45;;;5.00;1.00;;;;;;5161311;27;20355;-61
2021/03/14 03:45:54;;;;;;;4.43;2.25;;;5.00;6.60;;;;;;5161855;27;20174;-62
2021/03/14 03:48:25;;;;;;;4.80;2.15;;;5.00;21.20;;;;;;5159572;27;20174;-62
2021/03/14 03:50:55;;;;;;;6.55;2.30;;;5.00;2.50;;;;;;5159746;27;20166;-63
2021/03/14 03:53:21;;;;;;;6.55;2.60;;;5.10;1.00;;;;;;5159139;27;20297;-62
2021/03/14 03:55:50;;;;;;;2.60;2.05;;;5.00;1.00;;;;;;5159575;27;20262;-63
2021/03/14 03:58:17;;;;;;;4.22;2.10;;;5.00;1.00;;;;;;5159567;27;20219;-61
2021/03/14 04:00:44;;;;;;;2.45;1.75;;;5.00;1.00;;;;;;5159359;27;20174;-62
2021/03/14 04:03:10;;;;;;;6.18;2.05;;;5.00;1.00;;;;;;5159333;27;20211;-61
2021/03/14 04:05:37;;;;;;;7.22;1.65;;;4.90;1.00;;;;;;5158999;27;20186;-62
2021/03/14 04:08:04;;;;;;;6.07;2.17;;;5.00;1.00;;;;;;5159100;27;20626;-63
2021/03/14 04:10:30;;;;;;;4.47;2.13;;;5.00;1.00;;;;;;5159258;27;20186;-62
2021/03/14 04:12:57;;;;;;;3.83;2.80;;;5.10;1.00;;;;;;5159086;27;20289;-63
2021/03/14 04:15:26;;;;;;;6.80;2.33;;;5.00;1.00;;;;;;5159167;27;20241;-62
2021/03/14 04:17:53;;;;;;;4.05;2.65;;;5.00;1.00;;;;;;5159508;27;20560;-62
2021/03/14 04:20:22;;;;;;;4.25;2.40;;;5.10;1.00;;;;;;5159451;27;20170;-62
2021/03/14 04:22:53;;;;;;;4.30;2.65;;;5.00;1.00;;;;;;5158910;27;20186;-63
2021/03/14 04:25:20;;;;;;;4.75;2.40;;;5.10;1.00;;;;;;5158498;27;20176;-62
2021/03/14 04:27:48;;;;;;;4.45;2.45;;;5.10;1.00;;;;;;5159022;27;20198;-63
2021/03/14 04:30:15;;;;;;;4.78;2.58;;;5.10;1.00;;;;;;5158970;27;20554;-62
2021/03/14 04:32:41;;;;;;;4.38;2.28;;;5.20;4.30;;;;;;5158116;27;20235;-61
2021/03/14 04:35:08;;;;;;;9.30;2.60;;;5.20;3.30;;;;;;5158458;27;20166;-60
2021/03/14 04:37:39;;;;;;;10.93;3.08;;;5.20;13.70;;;;;;5157254;27;20178;-61
2021/03/14 04:40:11;;;;;;;3.88;2.20;;;5.20;21.60;;;;;;5157297;27;20170;-62
2021/03/14 04:42:40;;;;;;;13.00;3.72;;;5.20;29.00;;;;;;5156558;27;20548;-62
2021/03/14 04:45:08;;;;;;;11.75;3.13;;;5.20;46.10;;;;;;5158350;27;20169;-62
2021/03/14 04:47:33;;;;;;;10.40;2.60;;;5.20;57.80;;;;;;5157319;27;20314;-65
2021/03/14 04:49:59;;;;;;;13.90;2.70;;;5.20;77.00;;;;;;5156751;27;20202;-64
2021/03/14 04:52:26;;;;;;;3.80;2.80;;;5.30;88.40;;;;;;5157929;27;20458;-65
2021/03/14 04:54:53;;;;;;;10.18;2.80;;;5.30;98.90;;;;;;5157104;27;20276;-63
2021/03/14 04:57:21;;;;;;;9.27;2.75;;;5.20;99.90;;;;;;5158125;27;20189;-64
2021/03/14 04:59:49;;;;;;;8.25;2.50;;;5.30;99.90;;;;;;5157944;27;20179;-64
2021/03/14 05:02:15;;;;;;;5.65;2.72;;;5.30;99.90;;;;;;5157921;27;20177;-64
2021/03/14 05:04:47;;;;;;;11.23;3.42;;;5.40;99.90;;;;;;5156948;27;20170;-65
2021/03/14 05:07:14;;;;;;;14.98;3.30;;;5.50;99.90;;;;;;5157542;27;20447;-64
2021/03/14 05:09:41;;;;;;;7.93;2.80;;;5.50;99.90;;;;;;5157492;27;20170;-63
2021/03/14 05:12:08;;;;;;;7.90;2.33;;;5.50;99.90;;;;;;5157477;27;20178;-64
2021/03/14 05:14:36;;;;;;;7.80;2.10;;;5.60;99.90;;;;;;5157166;27;20170;-64
2021/03/14 05:17:04;;;;;;;7.68;3.42;;;5.60;99.30;;;;;;5157671;27;20330;-64
2021/03/14 05:19:32;;;;;;;10.32;2.50;;;5.60;99.90;;;;;;5157414;27;20485;-64
2021/03/14 05:21:59;;;;;;;11.75;3.28;;;5.60;99.90;;;;;;5156894;27;20174;-66
2021/03/14 05:24:27;;;;;;;18.67;2.90;;;5.60;98.30;;;;;;5157087;27;20238;-64
2021/03/14 05:26:56;;;;;;;9.00;2.30;;;5.60;90.30;;;;;;5156467;27;20182;-64
2021/03/14 05:29:24;;;;;;;9.80;2.55;;;5.70;65.50;;;;;;5157821;27;20177;-65
2021/03/14 05:31:49;;;;;;;10.70;4.13;;;5.60;59.50;;;;;;5157787;27;20238;-63
2021/03/14 05:34:25;;;;;;;11.73;2.83;;;5.60;76.80;;;;;;5156952;27;20198;-64
2021/03/14 05:36:51;;;;;;;9.88;3.15;;;5.70;74.60;;;;;;5157747;27;20169;-65
2021/03/14 05:39:16;;;;;;;9.63;2.88;;;5.70;50.10;;;;;;5157373;27;20185;-65
2021/03/14 05:41:43;;;;;;;12.43;3.03;;;5.70;38.60;;;;;;5157446;27;20178;-62
2021/03/14 05:44:09;;;;;;;12.80;2.80;;;5.70;29.60;;;;;;5157359;27;20318;-64
2021/03/14 05:46:35;;;;;;;5.22;2.63;;;5.70;30.80;;;;;;5157085;27;20166;-64
2021/03/14 05:49:03;;;;;;;9.80;4.07;;;5.70;33.70;;;;;;5157559;27;20324;-64
2021/03/14 05:51:33;;;;;;;5.70;2.70;;;5.70;38.70;;;;;;5156864;27;20956;-64
2021/03/14 05:53:59;;;;;;;4.88;1.92;;;5.80;36.90;;;;;;5157043;27;20209;-65
2021/03/14 05:56:26;;;;;;;8.88;2.67;;;5.70;54.10;;;;;;5157005;27;20166;-65
2021/03/14 05:58:54;;;;;;;8.70;3.00;;;5.80;58.70;;;;;;5157072;27;20185;-66
2021/03/14 06:01:23;;;;;;;5.72;3.15;;;5.90;60.60;;;;;;5157022;27;20554;-65
2021/03/14 06:03:49;;;;;;;9.60;2.38;;;5.80;50.00;;;;;;5157021;27;20212;-63
2021/03/14 06:06:16;;;;;;;10.05;4.45;;;5.80;59.60;;;;;;5156951;27;20217;-65
2021/03/14 06:08:44;;;;;;;10.18;2.50;;;5.70;99.90;;;;;;5156858;27;20194;-63
2021/03/14 06:11:13;;;;;;;15.43;2.72;;;5.70;99.90;;;;;;5157174;27;20230;-63
2021/03/14 06:13:39;;;;;;;7.00;2.85;;;5.60;99.90;;;;;;5156917;27;20217;-62
2021/03/14 06:16:06;;;;;;;16.15;4.28;;;5.70;99.90;;;;;;5156891;27;20209;-62
2021/03/14 06:18:33;;;;;;;17.48;3.55;;;5.90;99.90;;;;;;5156659;27;20250;-64
2021/03/14 06:20:58;;;;;;;10.48;2.65;;;6.00;99.90;;;;;;5156859;27;20265;-64
2021/03/14 06:23:24;;;;;;;6.47;4.10;;;5.80;99.90;;;;;;5156634;27;20209;-62
2021/03/14 06:25:55;;;;;;;12.73;3.67;;;5.80;99.90;;;;;;5157507;27;20183;-62
2021/03/14 06:28:35;;;;;;;4.55;1.77;;;5.80;99.90;;;;;;5156873;27;20235;-63
2021/03/14 06:31:15;;;;;;;14.98;3.35;;;5.80;97.80;;;;;;5156304;27;20212;-62
2021/03/14 06:33:40;;;;;;;11.70;2.85;;;5.80;80.00;;;;;;5160554;27;20205;-62
2021/03/14 06:36:16;;;;;;;10.47;2.60;;;5.80;70.90;;;;;;5160468;27;20176;-62
2021/03/14 06:38:43;;;;;;;12.32;2.85;;;5.90;61.60;;;;;;5160597;27;20177;-62
2021/03/14 06:41:16;;;;;;;8.82;2.85;;;5.90;55.50;;;;;;5153191;27;20179;-62
2021/03/14 06:43:48;;;;;;;11.95;2.45;;;5.90;49.50;;;;;;5125976;27;20187;-62
2021/03/14 06:46:22;;;;;;;5.28;2.25;;;5.90;59.30;;;;;;5138095;27;20193;-62
2021/03/14 06:49:03;;;;;;;11.30;2.90;;;5.90;41.10;;;;;;5128238;27;20224;-63
2021/03/14 06:51:38;;;;;;;13.93;3.38;;;6.00;38.80;;;;;;5136190;27;20186;-62
2021/03/14 06:54:27;;;;;;;7.13;2.42;;;5.90;18.20;;;;;;5127510;27;20206;-63
2021/03/14 06:57:07;;;;;;;8.30;2.85;;;6.10;5.60;;;;;;5136985;27;20249;-62
2021/03/14 06:59:44;;;;;;;6.20;3.13;;;6.00;1.00;;;;;;5135251;27;20178;-63
2021/03/14 07:02:10;;;;;;;7.20;2.10;;;6.00;1.00;;;;;;5136704;27;20320;-61
2021/03/14 07:04:50;;;;;;;12.37;2.70;;;6.00;7.30;;;;;;5137634;27;20339;-61
2021/03/14 07:07:20;;;;;;;7.15;2.17;;;6.20;5.80;;;;;;5132764;27;20354;-60
2021/03/14 07:09:52;;;;;;;5.88;2.60;;;6.20;1.00;;;;;;5136762;27;20171;-61
2021/03/14 07:12:23;;;;;;;9.95;3.03;;;6.20;1.00;;;;;;5130061;27;20182;-61
2021/03/14 07:14:49;;;;;;;8.10;2.35;;;6.10;1.00;;;;;;5133271;27;20211;-60
2021/03/14 07:17:33;;;;;;;12.30;2.25;;;6.00;2.30;;;;;;5139134;27;20171;-61
2021/03/14 07:20:01;;;;;;;7.07;1.90;;;6.10;17.30;;;;;;5126675;27;20201;-62
2021/03/14 07:22:27;;;;;;;14.70;3.58;;;6.00;15.30;;;;;;5133523;27;20192;-61
2021/03/14 07:24:53;;;;;;;7.93;2.70;;;6.00;10.60;;;;;;5130963;27;20496;-62
2021/03/14 07:27:21;;;;;;;11.17;2.90;;;6.00;14.30;;;;;;5129612;27;20183;-62
2021/03/14 07:29:48;;;;;;;5.05;2.50;;;6.10;15.50;;;;;;5131014;27;20629;-61
2021/03/14 07:32:14;;;;;;;7.75;3.00;;;6.10;6.20;;;;;;5132846;27;20602;-61
2021/03/14 07:34:40;;;;;;;9.37;2.37;;;6.10;2.90;;;;;;5135731;27;20327;-62
2021/03/14 07:37:05;;;;;;;5.63;2.97;;;6.10;4.80;;;;;;5138305;27;20199;-62
2021/03/14 07:39:31;;;;;;;14.97;2.70;;;6.30;1.00;;;;;;5138267;27;20190;-62
2021/03/14 07:41:58;;;;;;;7.47;3.00;;;6.20;1.00;;;;;;5137689;27;20496;-62
2021/03/14 07:44:25;;;;;;;4.15;1.90;;;6.30;1.00;;;;;;5131734;27;20191;-62
2021/03/14 07:46:52;;;;;;;5.40;3.10;;;6.30;1.00;;;;;;5136748;27;20186;-61
2021/03/14 07:49:23;;;;;;;9.93;3.05;;;6.40;1.00;;;;;;5131092;27;20244;-63
2021/03/14 07:51:57;;;;;;;5.47;2.03;;;6.40;1.00;;;;;;5136306;27;20262;-61
2021/03/14 07:54:35;;;;;;;5.85;3.03;;;6.50;1.00;;;;;;5131634;27;20957;-64
2021/03/14 07:57:01;;;;;;;14.15;3.95;;;6.60;1.00;;;;;;5137702;27;20623;-64
2021/03/14 07:59:29;;;;;;;5.35;2.47;;;6.60;1.00;;;;;;5135317;27;20691;-64
2021/03/14 08:02:18;;;;;;;10.45;2.70;;;6.60;1.00;;;;;;5132468;27;20183;-63
2021/03/14 08:04:47;;;;;;;7.03;2.28;;;6.50;1.00;;;;;;5136160;27;20215;-63
2021/03/14 08:07:13;;;;;;;5.47;2.92;;;6.50;16.50;;;;;;5127999;27;20216;-61
2021/03/14 08:09:43;;;;;;;5.77;2.33;;;6.40;9.40;;;;;;5134260;27;20184;-60
2021/03/14 08:12:18;;;;;;;12.50;2.90;;;6.40;22.00;;;;;;5128964;27;20441;-62
2021/03/14 08:14:46;;;;;;;9.85;2.97;;;6.60;19.90;;;;;;5128206;27;20668;-61
2021/03/14 08:17:26;;;;;;;6.38;2.75;;;6.60;1.00;;;;;;5127626;27;20644;-62
2021/03/14 08:19:53;;;;;;;8.40;3.00;;;6.60;1.00;;;;;;5136954;27;20188;-63
2021/03/14 08:22:37;;;;;;;10.18;4.00;;;6.90;1.00;;;;;;5136761;27;20211;-63
2021/03/14 08:25:24;;;;;;;8.00;3.00;;;7.10;1.00;;;;;;5136458;27;20180;-64
2021/03/14 08:27:52;;;;;;;11.48;3.25;;;7.20;1.00;;;;;;5135919;27;20283;-64
2021/03/14 08:30:29;;;;;;;11.60;3.05;;;7.30;1.00;;;;;;5125619;27;20189;-63
2021/03/14 08:33:16;;;;;;;10.13;3.33;;;7.40;1.00;;;;;;5136512;27;20552;-64
2021/03/14 08:35:47;;;;;;;6.90;3.63;;;7.60;1.00;;;;;;5136312;27;20605;-64
2021/03/14 08:38:35;;;;;;;15.85;3.70;;;7.80;1.00;;;;;;5136537;27;20183;-62
2021/03/14 08:41:22;;;;;;;11.70;3.00;;;7.60;99.90;;;;;;5137455;27;20191;-62
2021/03/14 08:43:54;;;;;;;12.90;3.85;;;7.60;99.90;;;;;;5136736;27;20514;-64
2021/03/14 08:46:19;;;;;;;7.53;2.25;;;7.40;99.90;;;;;;5133248;27;20218;-64
2021/03/14 08:48:45;;;;;;;7.17;2.10;;;7.40;99.90;;;;;;5133119;27;20288;-63
2021/03/14 08:51:12;;;;;;;3.37;2.07;;;7.70;99.90;;;;;;5134814;27;20442;-64
2021/03/14 08:53:38;;;;;;;7.80;2.65;;;7.60;99.90;;;;;;5131630;27;20806;-64
2021/03/14 08:56:05;;;;;;;6.25;2.47;;;7.40;99.90;;;;;;5134167;27;20180;-64
2021/03/14 08:58:32;;;;;;;6.53;2.00;;;7.40;99.90;;;;;;5133006;27;20173;-64
2021/03/14 09:01:05;;;;;;;5.15;2.05;;;7.50;99.90;;;;;;5135046;27;20196;-63
2021/03/14 09:03:31;;;;;;;6.88;1.80;;;7.40;1.00;;;;;;5129408;27;20196;-65
2021/03/14 09:06:03;;;;;;;5.30;2.13;;;7.40;40.70;;;;;;5132972;27;20627;-64
2021/03/14 09:08:29;;;;;;;6.03;1.75;;;7.50;1.00;;;;;;5133958;27;20390;-63
2021/03/14 09:10:54;;;;;;;5.27;2.10;;;7.60;1.00;;;;;;5134513;27;20184;-61
2021/03/14 09:13:29;;;;;;;5.30;1.47;;;7.80;99.90;;;;;;5134044;27;20621;-61
2021/03/14 09:15:55;;;;;;;7.03;1.60;;;8.10;99.90;;;;;;5126401;27;20197;-61
2021/03/14 09:18:28;;;;;;;4.87;1.40;;;8.30;1.00;;;;;;5135161;27;20194;-63
2021/03/14 09:21:00;;;;;;;3.58;1.50;;;8.70;85.80;;;;;;5132089;27;20508;-63
2021/03/14 09:23:26;;;;;;;2.45;1.08;;;8.40;99.90;;;;;;5120850;27;20217;-61
2021/03/14 09:25:53;;;;;;;1.90;1.27;;;8.20;1.00;;;;;;5128743;27;20200;-61
2021/03/14 09:28:19;;;;;;;2.75;1.60;;;8.20;99.90;;;;;;5132112;27;20247;-61
2021/03/14 09:30:44;;;;;;;5.20;1.10;;;8.30;1.00;;;;;;5132749;27;20189;-61
2021/03/14 09:33:12;;;;;;;3.33;1.20;;;8.40;1.00;;;;;;5135422;27;20265;-63
2021/03/14 09:35:39;;;;;;;6.05;1.20;;;8.40;1.00;;;;;;5131026;27;20190;-64
2021/03/14 09:38:14;;;;;;;3.20;1.15;;;8.40;1.00;;;;;;5126781;28;20186;-65
2021/03/14 09:40:49;;;;;;;4.55;1.95;;;8.40;1.00;;;;;;5137128;27;20492;-65
2021/03/14 09:43:18;;;;;;;5.97;1.58;;;8.70;30.30;;;;;;5136797;27;20195;-66
2021/03/14 09:45:51;;;;;;;4.85;1.67;;;8.90;1.00;;;;;;5136163;27;20513;-63
2021/03/14 09:48:19;;;;;;;7.90;2.20;;;9.00;1.00;;;;;;5134161;28;20243;-62
2021/03/14 09:50:49;;;;;;;8.23;1.70;;;9.00;1.00;;;;;;5136901;27;20513;-65
2021/03/14 09:53:18;;;;;;;4.45;1.65;;;9.00;99.90;;;;;;5136561;27;20645;-66
2021/03/14 09:55:46;;;;;;;5.15;1.50;;;8.70;99.90;;;;;;5135821;28;20259;-63
2021/03/14 09:58:17;;;;;;;4.25;2.17;;;8.50;1.00;;;;;;5138728;27;20301;-64
2021/03/14 10:00:45;;;;;;;7.82;1.92;;;8.90;1.00;;;;;;5135496;27;20188;-63
2021/03/14 10:03:17;;;;;;;2.95;1.50;;;8.90;1.00;;;;;;5134699;27;20180;-63
2021/03/14 10:05:46;;;;;;;4.93;1.75;;;9.40;99.90;;;;;;5134379;27;20591;-63
2021/03/14 10:08:35;;;;;;;9.98;2.53;;;9.20;1.00;;;;;;5138711;27;20182;-63
2021/03/14 10:11:05;;;;;;;7.97;2.13;;;9.00;1.00;;;;;;5139624;27;20209;-65
2021/03/14 10:13:33;;;;;;;3.85;1.42;;;8.70;99.90;;;;;;5139571;27;20195;-65
2021/03/14 10:16:00;;;;;;;3.95;1.40;;;8.40;1.00;;;;;;5138659;27;20189;-64
2021/03/14 10:18:28;;;;;;;9.70;2.10;;;8.80;1.00;;;;;;5139790;27;20185;-64
2021/03/14 10:21:23;;;;;;;6.35;1.85;;;9.20;1.00;;;;;;5139197;27;20251;-63
2021/03/14 10:23:50;;;;;;;8.80;2.00;;;9.70;1.00;;;;;;5138755;27;20443;-63
2021/03/14 10:26:16;;;;;;;6.60;1.60;;;9.90;99.90;;;;;;5139345;27;20192;-63
2021/03/14 10:28:45;;;;;;;7.75;2.25;;;10.00;1.00;;;;;;5138824;27;20189;-63
2021/03/14 10:31:12;;;;;;;6.78;3.38;;;10.00;90.20;;;;;;5138208;27;20583;-64
2021/03/14 10:33:41;;;;;;;5.30;1.67;;;9.50;82.70;;;;;;5138406;27;20235;-64
2021/03/14 10:36:17;;;;;;;5.22;2.25;;;9.30;99.90;;;;;;5139335;27;20178;-65
2021/03/14 10:38:51;;;;;;;4.88;1.50;;;9.40;1.00;;;;;;5140320;27;20182;-65
2021/03/14 10:41:17;;;;;;;5.60;1.55;;;9.20;1.00;;;;;;5139637;27;20178;-64
2021/03/14 10:43:52;;;;;;;12.02;3.65;;;9.00;99.90;;;;;;5139795;27;20218;-65
2021/03/14 10:46:41;;;;;;;7.65;1.42;;;9.00;67.50;;;;;;5140252;27;20185;-63
2021/03/14 10:49:09;;;;;;;5.80;1.80;;;9.30;1.00;;;;;;5140571;27;20242;-66
2021/03/14 10:51:37;;;;;;;5.90;2.13;;;9.60;99.90;;;;;;5139476;27;20196;-66
2021/03/14 10:54:11;;;;;;;10.82;1.98;;;9.90;1.00;;;;;;5138517;27;20726;-66
2021/03/14 10:56:45;;;;;;;8.70;2.03;;;10.10;82.10;;;;;;5139411;27;20174;-66
2021/03/14 10:59:28;;;;;;;7.22;2.33;;;10.20;1.00;;;;;;5139234;27;20185;-66
2021/03/14 11:02:10;;;;;;;6.68;2.40;;;10.50;1.00;;;;;;5139610;27;20185;-66
2021/03/14 11:04:36;;;;;;;18.15;6.68;;;10.20;99.90;;;;;;5138755;27;20595;-66
2021/03/14 11:07:31;;;;;;;6.32;2.20;;;9.70;1.00;;;;;;5139425;27;20261;-66
2021/03/14 11:10:08;;;;;;;5.35;1.80;;;9.20;1.00;;;;;;5138485;27;20177;-65
2021/03/14 11:12:38;;;;;;;1.80;1.15;;;9.10;99.90;;;;;;5139701;27;20239;-65
2021/03/14 11:15:05;;;;;;;4.32;1.60;;;8.90;1.00;;;;;;5137023;27;20260;-65
2021/03/14 11:17:34;;;;;;;1.35;1.02;;;8.90;1.00;;;;;;5137770;27;20183;-64
2021/03/14 11:20:01;;;;;;;11.40;2.28;;;8.90;99.90;;;;;;5137105;27;20388;-66
2021/03/14 11:22:26;;;;;;;6.20;2.13;;;9.50;1.00;;;;;;5136908;27;20575;-65
2021/03/14 11:24:52;;;;;;;11.27;1.93;;;9.50;1.00;;;;;;5136685;27;20204;-64
2021/03/14 11:27:18;;;;;;;3.43;1.47;;;9.60;1.00;;;;;;5134242;27;20257;-64
2021/03/14 11:29:44;;;;;;;3.72;1.63;;;9.90;1.00;;;;;;5137087;27;20193;-64
2021/03/14 11:32:13;;;;;;;4.00;2.57;;;9.90;1.00;;;;;;5132755;27;20170;-64
2021/03/14 11:34:44;;;;;;;4.15;1.60;;;9.80;1.00;;;;;;5136148;27;20469;-64
2021/03/14 11:37:10;;;;;;;3.33;1.40;;;10.20;1.00;;;;;;5129483;27;20264;-64
2021/03/14 11:39:36;;;;;;;2.80;1.17;;;10.10;91.90;;;;;;5129234;27;20200;-65
2021/03/14 11:42:03;;;;;;;6.03;1.30;;;10.00;99.90;;;;;;5129557;27;20623;-66
2021/03/14 11:44:29;;;;;;;3.83;1.20;;;10.00;99.90;;;;;;5138028;27;20564;-65
2021/03/14 11:46:57;;;;;;;5.10;1.70;;;10.00;99.90;;;;;;5136515;27;20614;-65
2021/03/14 11:49:23;;;;;;;6.32;1.60;;;10.00;1.00;;;;;;5133955;27;20197;-65
2021/03/14 11:51:50;;;;;;;6.55;1.95;;;10.20;99.90;;;;;;5136941;27;20282;-66
2021/03/14 11:54:17;;;;;;;3.88;2.15;;;10.20;1.00;;;;;;5137456;27;20650;-67
2021/03/14 11:56:50;;;;;;;7.13;2.30;;;10.70;1.00;;;;;;5134384;27;20193;-67
2021/03/14 11:59:17;;;;;;;3.72;1.67;;;10.50;1.00;;;;;;5132461;27;20184;-65
2021/03/14 12:01:43;;;;;;;5.32;1.67;;;10.60;1.00;;;;;;5135215;27;20246;-66
2021/03/14 12:04:09;;;;;;;4.85;2.00;;;10.80;1.00;;;;;;5122845;27;20183;-66
2021/03/14 12:06:35;;;;;;;6.73;1.47;;;10.80;99.90;;;;;;5127276;27;20759;-67
2021/03/14 12:09:02;;;;;;;6.22;1.77;;;10.30;1.00;;;;;;5132890;27;20178;-67
2021/03/14 12:11:28;;;;;;;3.17;1.42;;;10.00;1.00;;;;;;5136527;27;20175;-66
2021/03/14 12:13:54;;;;;;;8.13;1.70;;;9.50;1.00;;;;;;5135753;27;20363;-65
2021/03/14 12:16:19;;;;;;;5.70;1.50;;;9.50;1.00;;;;;;5136666;27;20176;-67
2021/03/14 12:18:46;;;;;;;10.37;2.70;;;9.50;75.30;;;;;;5136337;27;20189;-66
2021/03/14 12:21:13;;;;;;;13.43;5.95;;;9.70;1.00;;;;;;5135891;27;20171;-66
2021/03/14 12:23:45;;;;;;;8.35;2.00;;;10.00;1.00;;;;;;5136422;27;20216;-66
2021/03/14 12:26:11;;;;;;;4.38;1.60;;;10.10;99.90;;;;;;5136611;27;20170;-66
2021/03/14 12:28:37;;;;;;;3.20;1.30;;;10.40;6.50;;;;;;5136554;27;20268;-67
2021/03/14 12:31:03;;;;;;;5.80;2.35;;;10.40;1.00;;;;;;5132265;27;20186;-67
2021/03/14 12:33:29;;;;;;;4.20;1.65;;;10.40;1.00;;;;;;5133371;27;20760;-68
2021/03/14 12:35:55;;;;;;;5.30;1.77;;;10.50;1.00;;;;;;5133768;27;20213;-65
2021/03/14 12:38:21;;;;;;;4.30;1.47;;;10.30;1.00;;;;;;5136142;27;20181;-66
2021/03/14 12:40:49;;;;;;;5.80;1.50;;;9.90;1.00;;;;;;5135727;27;20227;-66
2021/03/14 12:43:16;;;;;;;6.40;2.28;;;9.90;1.00;;;;;;5136495;27;20222;-67
2021/03/14 12:45:43;;;;;;;8.52;2.13;;;9.70;99.90;;;;;;5136131;27;20186;-66
2021/03/14 12:48:09;;;;;;;5.80;1.50;;;9.20;99.90;;;;;;5135966;27;20177;-67
2021/03/14 12:50:35;;;;;;;4.05;1.63;;;8.90;51.30;;;;;;5135860;27;20186;-67
2021/03/14 12:53:00;;;;;;;4.60;1.63;;;8.80;99.90;;;;;;5135013;27;20215;-66
2021/03/14 12:55:27;;;;;;;4.03;1.60;;;8.60;36.60;;;;;;5136479;27;20201;-67
2021/03/14 12:57:53;;;;;;;3.83;1.63;;;8.10;99.90;;;;;;5134374;27;20754;-67
2021/03/14 13:00:20;;;;;;;4.45;1.42;;;7.80;30.70;;;;;;5133696;27;20656;-66
2021/03/14 13:02:46;;;;;;;5.55;1.42;;;7.80;99.90;;;;;;5132171;27;20181;-67
2021/03/14 13:05:12;;;;;;;6.93;2.03;;;7.90;1.00;;;;;;5128915;27;20573;-64
2021/03/14 13:07:38;;;;;;;4.63;1.20;;;8.00;1.00;;;;;;5130223;27;20197;-67